Time;durP1;ratioP1;P1;durP2;ratioP2;P2;SDS_P1;SDS_P2;PMS_P1;PMS_P2;Temp;Humidity;BMP_temperature;BMP_pressure;BME280_temperature;BME280_humidity;BME280_pressure;Samples;Min_cycle;Max_cycle;Signal;HPM_P1;HPM_P2
2023/01/10 00:00:30;;;;;;;5.75;2.95;;;;;;;-0.98;70.89;94985.44;4963089;28;20090;-77
2023/01/10 00:02:56;;;;;;;5.43;3.00;;;;;;;-1.41;72.48;94986.19;4948117;28;20105;-77
2023/01/10 00:05:21;;;;;;;2.13;1.90;;;;;;;-1.42;72.79;94995.84;4931805;28;20586;-77
2023/01/10 00:07:47;;;;;;;4.90;2.95;;;;;;;-1.41;72.54;94997.50;4980116;28;20266;-77
2023/01/10 00:10:13;;;;;;;5.25;2.13;;;;;;;-1.46;72.55;95005.66;4965641;28;20126;-77
2023/01/10 00:15:22;;;;;;;3.22;2.08;;;;;;;-1.50;71.25;95025.13;4970348;28;20148;-77
2023/01/10 00:17:47;;;;;;;3.42;2.58;;;;;;;-1.46;72.30;95025.72;4968049;28;20102;-77
2023/01/10 00:20:13;;;;;;;5.78;2.80;;;;;;;-1.65;72.71;95021.94;4968824;28;20066;-77
2023/01/10 00:22:39;;;;;;;5.60;3.00;;;;;;;-1.73;73.50;95032.94;4975144;28;20099;-77
2023/01/10 00:25:04;;;;;;;5.60;2.55;;;;;;;-1.68;74.14;95035.22;4983088;28;20101;-77
2023/01/10 00:27:30;;;;;;;11.32;4.20;;;;;;;-2.05;75.34;95045.78;4974805;28;20099;-77
2023/01/10 00:29:57;;;;;;;6.50;4.13;;;;;;;-2.10;75.60;95061.78;4959055;28;20102;-77
2023/01/10 00:32:24;;;;;;;7.20;3.22;;;;;;;-2.23;76.67;95067.06;4969600;28;20074;-77
2023/01/10 00:34:49;;;;;;;6.88;3.47;;;;;;;-1.85;75.74;95057.34;4976898;28;20140;-77
2023/01/10 00:37:14;;;;;;;8.95;4.20;;;;;;;-1.79;75.03;95069.94;4983247;28;20457;-77
2023/01/10 00:39:40;;;;;;;9.48;4.10;;;;;;;-2.03;75.88;95083.03;4951235;28;20128;-77
2023/01/10 00:44:50;;;;;;;10.02;3.72;;;;;;;-1.91;75.52;95092.56;4982700;28;20109;-77
2023/01/10 00:47:15;;;;;;;10.55;4.88;;;;;;;-2.19;75.73;95105.00;4972060;28;20106;-77
2023/01/10 00:49:41;;;;;;;8.25;3.60;;;;;;;-1.73;73.87;95105.22;4969935;28;20601;-77
2023/01/10 00:52:06;;;;;;;8.38;3.67;;;;;;;-1.47;73.45;95098.03;4968371;28;20584;-77
2023/01/10 00:54:32;;;;;;;10.57;3.72;;;;;;;-1.63;74.42;95106.16;4951684;28;20177;-77
2023/01/10 00:56:58;;;;;;;9.35;3.25;;;;;;;-1.62;74.90;95114.84;4950139;28;20075;-77
2023/01/10 00:59:23;;;;;;;6.05;3.28;;;;;;;-1.49;73.81;95115.56;4975419;28;20153;-77
2023/01/10 01:01:49;;;;;;;6.15;3.53;;;;;;;-1.76;73.89;95123.69;4974678;28;20463;-77
2023/01/10 01:04:15;;;;;;;7.40;3.50;;;;;;;-1.64;73.34;95135.00;4983246;28;20499;-77
2023/01/10 01:06:42;;;;;;;7.60;3.42;;;;;;;-1.42;73.46;95130.78;4972396;28;20103;-77
2023/01/10 01:09:08;;;;;;;8.88;3.65;;;;;;;-1.43;72.56;95144.81;4974727;28;20091;-77
2023/01/10 01:11:33;;;;;;;9.63;3.97;;;;;;;-2.28;75.58;95150.00;4983429;28;20073;-77
2023/01/10 01:13:59;;;;;;;5.97;2.70;;;;;;;-2.22;75.68;95151.34;4981911;28;20106;-77
2023/01/10 01:16:24;;;;;;;10.25;4.22;;;;;;;-1.66;74.15;95158.59;4954816;28;20075;-77
2023/01/10 01:18:49;;;;;;;7.25;3.45;;;;;;;-1.32;73.59;95157.91;4982854;28;20105;-77
2023/01/10 01:21:15;;;;;;;6.55;3.97;;;;;;;-1.65;74.08;95151.63;4977633;28;20094;-77
2023/01/10 01:23:41;;;;;;;6.03;3.38;;;;;;;-1.65;73.36;95162.06;4967113;28;20079;-77
2023/01/10 01:26:06;;;;;;;6.20;2.95;;;;;;;-1.18;71.70;95174.31;4982209;28;20106;-77
2023/01/10 01:28:32;;;;;;;4.43;2.78;;;;;;;-1.81;73.45;95194.50;4953386;28;20078;-78
2023/01/10 01:30:57;;;;;;;4.43;3.03;;;;;;;-2.24;75.52;95201.03;4982355;28;20099;-76
2023/01/10 01:33:22;;;;;;;6.38;2.83;;;;;;;-2.13;75.07;95197.66;4981427;28;20106;-77
2023/01/10 01:35:49;;;;;;;2.05;1.90;;;;;;;-2.45;75.14;95205.97;4955271;28;20092;-77
2023/01/10 01:38:14;;;;;;;4.70;2.25;;;;;;;-2.12;74.31;95201.91;4968698;28;20115;-76
2023/01/10 01:40:40;;;;;;;4.82;2.40;;;;;;;-1.97;73.42;95205.19;4984299;28;20133;-77
2023/01/10 01:43:26;;;;;;;3.40;2.35;;;;;;;-2.12;73.66;95214.97;4968066;28;20153;-76
2023/01/10 01:45:51;;;;;;;3.20;1.88;;;;;;;-2.07;73.52;95230.31;4977279;28;20478;-77
2023/01/10 01:48:27;;;;;;;1.80;1.70;;;;;;;-2.29;74.60;95223.97;4962293;28;20088;-77
2023/01/10 01:51:11;;;;;;;3.53;2.40;;;;;;;-2.07;73.69;95214.66;4979789;28;20200;-77
2023/01/10 01:53:45;;;;;;;4.07;2.45;;;;;;;-1.83;72.48;95237.31;4949564;28;20102;-76
2023/01/10 01:56:18;;;;;;;7.53;3.40;;;;;;;-2.03;74.19;95252.63;4964778;28;20085;-76
2023/01/10 01:58:50;;;;;;;11.07;3.58;;;;;;;-2.20;74.84;95249.44;4964307;28;20206;-76
2023/01/10 02:01:15;;;;;;;9.40;4.05;;;;;;;-2.27;75.33;95256.81;4966550;28;20147;-77
2023/01/10 02:03:41;;;;;;;10.63;4.07;;;;;;;-2.42;77.17;95273.53;4972853;28;20096;-77
2023/01/10 02:06:07;;;;;;;6.35;3.45;;;;;;;-2.57;77.48;95267.59;4977513;28;20618;-77
2023/01/10 02:08:32;;;;;;;12.75;5.25;;;;;;;-2.89;77.91;95272.28;4963259;28;20075;-77
2023/01/10 02:11:10;;;;;;;8.85;4.22;;;;;;;-2.58;77.77;95261.53;4951511;28;20471;-77
2023/01/10 02:13:40;;;;;;;12.40;4.20;;;;;;;-2.34;77.49;95265.19;4958900;28;20393;-76
2023/01/10 02:16:06;;;;;;;13.30;5.30;;;;;;;-2.58;77.69;95284.19;4957002;28;20079;-77
2023/01/10 02:18:31;;;;;;;11.88;4.38;;;;;;;-2.09;75.12;95273.91;4966190;28;20097;-77
2023/01/10 02:21:18;;;;;;;8.00;4.07;;;;;;;-2.05;75.54;95281.44;4972404;28;20418;-76
2023/01/10 02:24:07;;;;;;;14.27;4.43;;;;;;;-1.78;74.35;95292.63;4979617;28;20427;-76
2023/01/10 02:26:41;;;;;;;10.05;3.80;;;;;;;-1.81;74.11;95304.13;4972657;28;20106;-77
2023/01/10 02:29:32;;;;;;;11.13;4.30;;;;;;;-1.94;74.30;95298.13;4981169;28;20120;-77
2023/01/10 02:32:22;;;;;;;11.05;4.63;;;;;;;-2.07;74.53;95304.16;4971847;28;20094;-77
2023/01/10 02:34:58;;;;;;;;;;;;;;;-1.82;74.55;95301.63;4966399;28;20098;-77
2023/01/10 02:37:51;;;;;;;9.68;3.63;;;;;;;-1.74;73.20;95305.34;4971930;28;20417;-77
2023/01/10 02:40:38;;;;;;;8.98;3.92;;;;;;;-1.52;72.76;95311.66;4980974;28;20086;-77
2023/01/10 02:43:09;;;;;;;9.68;4.00;;;;;;;-1.06;70.99;95298.00;4980916;28;20653;-77
2023/01/10 02:45:40;;;;;;;11.63;4.43;;;;;;;-0.87;69.75;95305.31;4965881;28;20740;-77
2023/01/10 02:48:05;;;;;;;10.55;4.30;;;;;;;-1.10;71.11;95302.59;4954065;28;20075;-77
2023/01/10 02:50:40;;;;;;;11.93;3.72;;;;;;;-1.26;70.60;95295.03;4954563;28;20172;-77
2023/01/10 02:53:11;;;;;;;6.22;3.70;;;;;;;-1.12;70.77;95301.88;4979513;28;20085;-77
2023/01/10 02:56:12;;;;;;;16.15;4.90;;;;;;;-1.53;71.82;95312.59;4949552;28;20532;-77
2023/01/10 02:59:02;;;;;;;6.47;3.67;;;;;;;-1.41;71.78;95313.50;4948964;28;20107;-77
2023/01/10 03:01:46;;;;;;;11.43;4.30;;;;;;;-1.57;72.26;95323.38;4980177;28;20740;-77
2023/01/10 03:04:16;;;;;;;13.20;4.38;;;;;;;-1.96;73.31;95326.91;4981023;28;20398;-77
2023/01/10 03:07:08;;;;;;;14.43;4.53;;;;;;;-1.94;73.61;95319.81;4948515;28;20157;-77
2023/01/10 03:09:46;;;;;;;7.55;3.38;;;;;;;-1.31;71.82;95316.28;4961314;28;20474;-82
2023/01/10 03:12:18;;;;;;;10.55;4.68;;;;;;;-1.30;71.48;95324.94;4978095;28;20074;-79
2023/01/10 03:14:43;;;;;;;9.32;3.53;;;;;;;-1.11;70.03;95327.88;4962283;28;20423;-78
2023/01/10 03:17:09;;;;;;;7.75;3.97;;;;;;;-1.27;70.78;95330.78;4950709;28;20639;-78
2023/01/10 03:19:39;;;;;;;13.60;4.00;;;;;;;-1.25;70.83;95330.69;4968924;28;20079;-78
2023/01/10 03:22:04;;;;;;;10.40;3.42;;;;;;;-1.01;69.68;95337.66;4969379;28;20109;-78
2023/01/10 03:24:35;;;;;;;7.80;3.80;;;;;;;-1.05;69.37;95350.13;4960604;28;20170;-79
2023/01/10 03:27:07;;;;;;;19.45;4.90;;;;;;;-1.64;71.41;95352.53;4977917;28;20117;-78
2023/01/10 03:29:41;;;;;;;8.63;3.75;;;;;;;-1.04;69.77;95338.75;4958376;28;20601;-78
2023/01/10 03:32:06;;;;;;;9.38;3.78;;;;;;;-0.78;68.96;95351.69;4962678;28;20077;-78
2023/01/10 03:34:32;;;;;;;13.38;5.05;;;;;;;-1.02;68.58;95362.97;4950917;28;20781;-78
2023/01/10 03:37:13;;;;;;;7.25;3.67;;;;;;;-1.27;70.33;95361.28;4955073;28;20131;-78
2023/01/10 03:40:31;;;;;;;7.20;3.05;;;;;;;-0.56;67.83;95352.72;4947511;28;20111;-76
2023/01/10 03:46:01;;;;;;;11.88;4.40;;;;;;;-0.90;68.50;95376.13;4940391;28;20134;-76
2023/01/10 03:48:29;;;;;;;9.60;3.67;;;;;;;-1.12;68.76;95369.81;4928213;28;20075;-76
2023/01/10 03:50:55;;;;;;;14.38;3.97;;;;;;;-1.42;70.04;95376.28;4928709;28;20134;-76
2023/01/10 03:53:20;;;;;;;8.27;2.88;;;;;;;-1.42;70.68;95376.28;4943877;28;20211;-76
2023/01/10 03:55:46;;;;;;;11.18;3.90;;;;;;;-2.01;72.42;95399.44;4944382;28;20615;-76
2023/01/10 03:58:11;;;;;;;7.47;3.55;;;;;;;-1.79;71.57;95396.22;4941814;28;20107;-76
2023/01/10 04:00:38;;;;;;;16.83;3.35;;;;;;;-1.51;71.34;95398.66;4942063;28;20087;-76
2023/01/10 04:03:03;;;;;;;12.00;3.70;;;;;;;-1.19;69.71;95398.16;4944544;28;20107;-76
2023/01/10 04:05:29;;;;;;;7.63;3.33;;;;;;;-1.26;68.78;95402.13;4944643;28;20119;-76
2023/01/10 04:07:54;;;;;;;12.55;3.65;;;;;;;-1.47;69.92;95403.56;4944586;28;20087;-76
2023/01/10 04:10:20;;;;;;;10.85;3.67;;;;;;;-0.93;67.72;95408.53;4945671;28;20104;-76
2023/01/10 04:12:45;;;;;;;11.15;3.13;;;;;;;-0.88;67.16;95398.56;4945132;28;20090;-76
2023/01/10 04:15:11;;;;;;;10.88;3.47;;;;;;;-0.68;67.14;95403.31;4943859;28;20495;-76
2023/01/10 04:17:36;;;;;;;7.40;2.85;;;;;;;-0.20;65.92;95403.19;4942603;28;20507;-76
2023/01/10 04:20:01;;;;;;;8.68;2.90;;;;;;;0.08;64.38;95414.19;4945197;28;20519;-76
2023/01/10 04:22:27;;;;;;;10.45;3.75;;;;;;;0.31;62.66;95411.59;4929361;28;20444;-76
2023/01/10 04:24:53;;;;;;;6.00;2.38;;;;;;;0.07;63.89;95417.75;4944437;28;20092;-76
2023/01/10 04:27:19;;;;;;;8.60;2.65;;;;;;;-0.26;65.42;95415.91;4945183;28;20096;-76
2023/01/10 04:29:44;;;;;;;15.70;3.08;;;;;;;0.27;64.10;95427.69;4929007;28;20192;-76
2023/01/10 04:32:10;;;;;;;12.98;3.65;;;;;;;0.09;63.96;95428.13;4927166;28;20526;-78
2023/01/10 04:34:35;;;;;;;19.02;4.32;;;;;;;-0.77;65.58;95439.66;4945830;28;20106;-78
2023/01/10 04:37:00;;;;;;;9.90;3.22;;;;;;;-0.44;64.82;95437.25;4943714;28;20098;-78
2023/01/10 04:39:26;;;;;;;10.38;3.65;;;;;;;-1.12;66.96;95443.00;4961670;28;20547;-78
2023/01/10 04:41:51;;;;;;;11.95;3.50;;;;;;;-0.81;66.73;95440.81;4946037;28;20560;-78
2023/01/10 04:44:17;;;;;;;8.93;3.08;;;;;;;-1.36;67.95;95455.03;4945147;28;20131;-78
2023/01/10 04:46:42;;;;;;;9.18;3.10;;;;;;;-1.12;67.70;95453.44;4945488;28;20620;-78
2023/01/10 04:49:09;;;;;;;14.73;3.78;;;;;;;-0.61;65.89;95462.06;4945735;28;20106;-78
2023/01/10 04:51:34;;;;;;;11.65;3.55;;;;;;;-0.68;65.96;95460.84;4943532;28;20648;-78
2023/01/10 04:53:59;;;;;;;9.38;3.40;;;;;;;-0.93;66.56;95473.03;4942926;28;20099;-78
2023/01/10 04:56:25;;;;;;;9.65;2.88;;;;;;;-0.60;66.47;95472.38;4944712;28;20456;-78
2023/01/10 04:58:51;;;;;;;12.88;3.28;;;;;;;-0.48;65.65;95475.06;4940242;28;20155;-78
2023/01/10 05:01:19;;;;;;;12.18;3.05;;;;;;;-0.51;65.42;95481.34;4943704;28;20143;-78
2023/01/10 05:03:54;;;;;;;8.57;3.13;;;;;;;-0.24;64.69;95471.59;4944153;28;20691;-78
2023/01/10 05:06:20;;;;;;;9.77;3.03;;;;;;;-0.41;65.32;95478.09;4926054;29;20111;-78
2023/01/10 05:08:46;;;;;;;9.77;2.80;;;;;;;-0.45;64.75;95475.69;4943315;29;20097;-78
2023/01/10 05:11:11;;;;;;;16.67;3.20;;;;;;;-0.38;64.64;95469.97;4943681;28;20100;-78
2023/01/10 05:13:37;;;;;;;8.80;2.70;;;;;;;-0.59;65.51;95483.69;4943158;29;20115;-78
2023/01/10 05:16:02;;;;;;;5.22;2.30;;;;;;;-0.80;66.12;95491.31;4942937;29;20078;-78
2023/01/10 05:18:28;;;;;;;10.38;2.47;;;;;;;-0.68;65.45;95505.28;4942430;28;20193;-78
2023/01/10 05:21:05;;;;;;;9.27;2.97;;;;;;;-0.53;65.45;95487.66;4926888;29;20158;-78
2023/01/10 05:23:30;;;;;;;13.88;3.42;;;;;;;-0.75;65.22;95507.53;4942341;29;20175;-78
2023/01/10 05:25:56;;;;;;;8.57;2.55;;;;;;;-0.57;65.28;95494.88;4942784;28;20123;-78
2023/01/10 05:28:21;;;;;;;12.38;3.78;;;;;;;-0.36;64.24;95494.25;4943443;29;20079;-79
2023/01/10 05:30:47;;;;;;;11.60;3.15;;;;;;;-0.66;64.63;95498.16;4926259;29;20127;-76
2023/01/10 05:33:13;;;;;;;12.13;2.83;;;;;;;-0.51;64.88;95507.50;4942544;28;20495;-76
2023/01/10 05:35:38;;;;;;;10.52;2.88;;;;;;;-0.39;63.96;95515.41;4941919;28;20569;-76
2023/01/10 05:38:04;;;;;;;12.52;3.10;;;;;;;-0.18;63.37;95505.16;4947132;28;20127;-76
2023/01/10 05:40:29;;;;;;;12.35;3.25;;;;;;;-0.47;64.74;95503.72;4971038;28;20570;-76
2023/01/10 05:42:54;;;;;;;12.23;3.78;;;;;;;0.16;62.17;95514.88;4982197;28;20180;-76
2023/01/10 05:45:20;;;;;;;7.50;2.60;;;;;;;0.51;61.31;95503.50;4969481;28;20168;-76
2023/01/10 05:47:45;;;;;;;14.00;3.47;;;;;;;0.24;61.24;95515.13;4983021;28;20117;-76
2023/01/10 05:50:11;;;;;;;8.57;2.42;;;;;;;0.37;61.59;95522.09;4981168;28;20110;-76
2023/01/10 05:52:36;;;;;;;11.88;3.10;;;;;;;0.86;60.05;95527.97;4966473;28;20078;-76
2023/01/10 05:55:02;;;;;;;9.63;3.08;;;;;;;1.21;59.20;95534.00;4971912;28;20307;-76
2023/01/10 05:57:27;;;;;;;8.90;2.78;;;;;;;1.05;59.30;95537.84;4971261;28;21044;-76
2023/01/10 05:59:52;;;;;;;8.95;3.10;;;;;;;1.21;59.14;95540.09;4967543;28;20090;-76
2023/01/10 06:02:18;;;;;;;6.93;2.25;;;;;;;1.09;59.42;95543.69;4965243;28;20117;-78
2023/01/10 06:04:43;;;;;;;20.30;8.52;;;;;;;0.08;61.80;95552.94;4980888;28;20101;-77
2023/01/10 06:07:09;;;;;;;16.83;4.07;;;;;;;0.18;60.81;95545.25;4968607;28;20157;-78
2023/01/10 06:09:34;;;;;;;13.02;3.22;;;;;;;0.22;62.18;95551.09;4981678;28;20105;-78
2023/01/10 06:11:59;;;;;;;6.57;2.50;;;;;;;0.69;59.90;95551.06;4980468;28;20082;-77
2023/01/10 06:14:25;;;;;;;13.32;3.33;;;;;;;0.96;59.73;95549.88;4967267;28;20110;-78
2023/01/10 06:16:50;;;;;;;16.50;3.58;;;;;;;1.06;58.57;95557.03;4966512;28;20613;-77
2023/01/10 06:19:16;;;;;;;11.00;3.30;;;;;;;0.68;60.40;95564.28;4982030;28;20098;-78
2023/01/10 06:21:41;;;;;;;6.85;3.10;;;;;;;0.62;60.32;95564.75;4980289;28;20109;-78
2023/01/10 06:24:07;;;;;;;8.80;3.53;;;;;;;0.85;59.38;95568.22;4974834;28;20109;-77
2023/01/10 06:26:32;;;;;;;11.18;3.03;;;;;;;0.78;59.67;95570.47;4953637;28;20189;-78
2023/01/10 06:28:58;;;;;;;12.30;3.00;;;;;;;0.76;59.65;95582.88;4972831;28;20074;-78
2023/01/10 06:31:24;;;;;;;10.88;3.08;;;;;;;0.75;59.60;95591.69;4968514;28;20467;-78
2023/01/10 06:33:50;;;;;;;10.70;3.45;;;;;;;0.44;61.08;95594.84;4970921;28;20164;-78
2023/01/10 06:36:15;;;;;;;12.93;3.97;;;;;;;0.36;60.78;95598.97;4964316;28;20091;-78
2023/01/10 06:38:41;;;;;;;27.02;15.35;;;;;;;0.18;61.11;95600.22;4973607;28;20133;-77
2023/01/10 06:41:12;;;;;;;12.82;5.35;;;;;;;-0.01;61.51;95592.91;4973114;28;20109;-77
2023/01/10 06:43:44;;;;;;;255.93;159.43;;;;;;;0.71;60.08;95587.63;4980974;28;20082;-78
2023/01/10 06:46:10;;;;;;;17.10;5.95;;;;;;;0.36;60.95;95588.50;4973179;28;20577;-78
2023/01/10 06:48:36;;;;;;;13.60;6.55;;;;;;;0.57;60.29;95591.28;4957744;28;20595;-77
2023/01/10 06:51:02;;;;;;;10.70;3.80;;;;;;;1.16;58.18;95606.97;4972192;28;20205;-78
2023/01/10 06:53:27;;;;;;;10.43;3.17;;;;;;;1.41;56.68;95616.41;4963987;28;20555;-78
2023/01/10 06:55:56;;;;;;;14.55;4.30;;;;;;;1.40;57.32;95616.50;4980895;28;20083;-77
2023/01/10 06:58:22;;;;;;;12.95;3.88;;;;;;;1.77;56.09;95621.47;4979498;28;20101;-78
2023/01/10 07:00:47;;;;;;;10.30;3.45;;;;;;;1.43;55.95;95635.47;4948637;28;20171;-78
2023/01/10 07:03:12;;;;;;;10.02;3.70;;;;;;;1.02;58.45;95645.59;4981104;28;20097;-77
2023/01/10 07:05:38;;;;;;;11.55;4.40;;;;;;;0.34;60.48;95651.47;4972675;28;20120;-78
2023/01/10 07:08:03;;;;;;;10.73;3.92;;;;;;;1.41;58.47;95660.16;4970320;28;20552;-78
2023/01/10 07:10:29;;;;;;;9.90;3.42;;;;;;;0.88;57.46;95662.38;4978544;28;20110;-77
2023/01/10 07:12:54;;;;;;;6.78;2.95;;;;;;;1.14;57.03;95656.94;4980520;28;20150;-77
2023/01/10 07:15:20;;;;;;;6.63;2.70;;;;;;;0.79;57.82;95642.09;4947243;28;20071;-77
2023/01/10 07:17:45;;;;;;;8.52;3.10;;;;;;;0.70;58.22;95652.34;4951100;28;20189;-77
2023/01/10 07:20:11;;;;;;;7.55;2.65;;;;;;;-0.03;60.10;95672.50;4950747;28;20085;-77
2023/01/10 07:22:36;;;;;;;13.80;3.55;;;;;;;0.36;59.70;95657.44;4950078;28;20122;-78
2023/01/10 07:25:02;;;;;;;7.47;2.60;;;;;;;0.41;57.95;95667.59;4969227;28;20094;-77
2023/01/10 07:27:29;;;;;;;12.65;3.85;;;;;;;-0.16;60.19;95667.31;4955784;28;20477;-64
2023/01/10 07:29:55;;;;;;;5.13;2.40;;;;;;;-0.34;61.10;95691.22;4983120;28;20118;-64
2023/01/10 07:32:20;;;;;;;18.85;3.90;;;;;;;-0.64;61.80;95689.81;4980961;28;20161;-64
2023/01/10 07:34:46;;;;;;;11.35;4.18;;;;;;;-1.28;63.42;95694.88;4982831;28;20105;-64
2023/01/10 07:37:11;;;;;;;19.40;10.07;;;;;;;-1.02;63.08;95705.34;4966365;28;20126;-64
2023/01/10 07:39:36;;;;;;;23.42;11.48;;;;;;;-0.75;62.96;95704.44;4980075;28;20157;-64
2023/01/10 07:42:02;;;;;;;16.25;5.97;;;;;;;-0.10;61.00;95687.81;4982759;28;20113;-64
2023/01/10 07:44:27;;;;;;;12.23;3.45;;;;;;;-0.49;61.23;95688.72;4980847;28;20463;-65
2023/01/10 07:46:53;;;;;;;10.50;3.40;;;;;;;-0.31;60.94;95704.06;4981272;28;20344;-64
2023/01/10 07:49:18;;;;;;;13.18;3.95;;;;;;;-0.59;61.19;95709.47;4977675;28;20586;-65
2023/01/10 07:51:43;;;;;;;10.68;4.65;;;;;;;-1.17;63.98;95708.97;4976096;28;20530;-64
2023/01/10 07:54:09;;;;;;;12.15;3.60;;;;;;;0.27;59.04;95708.72;4978222;28;20172;-64
2023/01/10 07:56:34;;;;;;;15.85;4.63;;;;;;;-0.37;60.53;95710.56;4965413;28;20106;-64
2023/01/10 07:59:00;;;;;;;7.40;2.80;;;;;;;-0.09;60.13;95707.81;4980277;28;20304;-64
2023/01/10 08:01:25;;;;;;;14.75;3.63;;;;;;;-0.31;59.39;95709.31;4980675;28;20095;-64
2023/01/10 08:03:51;;;;;;;9.88;2.47;;;;;;;0.45;58.50;95703.91;4978899;28;20071;-65
2023/01/10 08:06:16;;;;;;;13.52;3.75;;;;;;;0.57;57.12;95710.06;4977948;28;20110;-64
2023/01/10 08:08:42;;;;;;;8.65;2.70;;;;;;;0.36;58.41;95714.22;4983082;28;20458;-64
2023/01/10 08:11:07;;;;;;;9.68;3.58;;;;;;;0.01;57.88;95711.44;4981242;28;20583;-64
2023/01/10 08:13:33;;;;;;;9.55;3.13;;;;;;;-0.74;61.74;95726.19;4983373;28;20105;-64
2023/01/10 08:15:58;;;;;;;14.90;2.97;;;;;;;-0.48;60.84;95724.41;4983543;28;20261;-64
2023/01/10 08:18:23;;;;;;;6.90;2.67;;;;;;;0.08;59.26;95727.56;4980214;28;20395;-64
2023/01/10 08:20:50;;;;;;;8.98;2.85;;;;;;;-0.35;60.88;95716.53;4982380;28;20075;-65
2023/01/10 08:23:15;;;;;;;11.05;4.70;;;;;;;0.13;59.26;95721.97;4982477;28;20606;-64
2023/01/10 08:25:41;;;;;;;40.60;23.42;;;;;;;-0.28;60.53;95730.03;4982569;28;20111;-64
2023/01/10 08:28:06;;;;;;;77.93;49.20;;;;;;;0.19;58.70;95726.78;4981883;28;20082;-64
2023/01/10 08:30:32;;;;;;;33.72;19.88;;;;;;;0.36;57.52;95729.94;4979143;28;20100;-65
2023/01/10 08:32:57;;;;;;;17.88;7.38;;;;;;;0.62;56.82;95725.44;4981055;28;20124;-64
2023/01/10 08:35:22;;;;;;;12.07;3.55;;;;;;;0.62;57.73;95729.84;4980241;28;20072;-64
2023/01/10 08:37:48;;;;;;;14.48;3.88;;;;;;;0.85;56.95;95731.59;4980007;28;20102;-64
2023/01/10 08:40:13;;;;;;;11.50;3.50;;;;;;;0.66;56.85;95734.75;4980970;28;20118;-64
2023/01/10 08:42:39;;;;;;;15.80;4.03;;;;;;;0.64;56.68;95741.03;4981797;28;20205;-64
2023/01/10 08:45:05;;;;;;;8.65;2.80;;;;;;;0.87;56.80;95744.59;4974311;28;20117;-65
2023/01/10 08:47:30;;;;;;;14.38;3.20;;;;;;;0.94;55.42;95745.81;4978734;28;20077;-64
2023/01/10 08:49:55;;;;;;;11.18;3.65;;;;;;;0.98;56.36;95744.63;4961789;28;20161;-65
2023/01/10 08:52:21;;;;;;;9.88;2.78;;;;;;;-0.01;59.08;95754.38;4977397;28;20139;-65
2023/01/10 08:54:46;;;;;;;9.85;2.70;;;;;;;0.32;58.48;95750.31;4978869;28;20105;-65
2023/01/10 08:57:12;;;;;;;6.20;2.80;;;;;;;0.65;57.06;95750.59;4973513;28;20081;-65
2023/01/10 08:59:38;;;;;;;6.32;2.97;;;;;;;0.78;57.19;95751.34;4980685;28;20113;-64
2023/01/10 09:02:03;;;;;;;10.00;2.50;;;;;;;-0.37;60.98;95757.66;4980990;28;20103;-65
2023/01/10 09:04:29;;;;;;;8.88;2.58;;;;;;;-0.63;60.54;95759.47;4979862;28;20137;-65
2023/01/10 09:06:54;;;;;;;15.00;2.42;;;;;;;-0.87;61.49;95768.03;4982133;28;20466;-65
2023/01/10 09:09:20;;;;;;;12.45;4.63;;;;;;;-0.90;61.74;95763.00;4979065;28;20184;-65
2023/01/10 09:11:45;;;;;;;13.07;3.10;;;;;;;-1.09;63.33;95775.47;4982358;28;20117;-65
2023/01/10 09:14:11;;;;;;;9.57;2.92;;;;;;;-1.01;62.15;95772.38;4982150;28;20529;-65
2023/01/10 09:16:36;;;;;;;13.27;3.38;;;;;;;-0.43;61.02;95776.41;4980742;28;20102;-65
2023/01/10 09:19:02;;;;;;;8.32;2.70;;;;;;;-0.92;62.63;95783.19;4981139;28;20535;-65
2023/01/10 09:21:27;;;;;;;11.23;2.55;;;;;;;-1.09;62.41;95779.84;4981108;28;20086;-65
2023/01/10 09:23:53;;;;;;;9.02;2.67;;;;;;;-1.39;64.58;95788.78;4973079;28;20133;-64
2023/01/10 09:26:18;;;;;;;11.88;3.00;;;;;;;-1.50;64.98;95792.91;4976916;28;20122;-65
2023/01/10 09:28:44;;;;;;;14.82;3.35;;;;;;;-0.91;64.00;95790.94;4982314;28;20551;-64
2023/01/10 09:31:10;;;;;;;11.07;2.67;;;;;;;-1.06;64.18;95795.34;4980732;28;20100;-77
2023/01/10 09:33:35;;;;;;;12.30;2.42;;;;;;;0.12;59.89;95780.53;4982613;28;20129;-77
2023/01/10 09:36:01;;;;;;;9.77;2.50;;;;;;;0.17;59.26;95791.53;4951454;28;20079;-65
2023/01/10 09:38:26;;;;;;;20.67;8.27;;;;;;;0.37;59.02;95795.31;4978002;28;20637;-64
2023/01/10 09:41:07;;;;;;;15.85;3.88;;;;;;;0.64;57.86;95789.03;4976895;28;20866;-64
2023/01/10 09:43:54;;;;;;;30.83;12.38;;;;;;;1.33;55.90;95802.44;4979034;28;20415;-65
2023/01/10 09:46:41;;;;;;;11.88;5.38;;;;;;;0.34;58.24;95803.41;4974692;28;21898;-65
2023/01/10 09:49:19;;;;;;;9.30;3.20;;;;;;;0.27;59.34;95800.38;4968055;28;20078;-65
2023/01/10 09:51:47;;;;;;;17.52;5.28;;;;;;;0.46;58.88;95805.16;4979489;28;20597;-65
2023/01/10 09:54:33;;;;;;;11.95;3.28;;;;;;;-0.26;61.26;95821.50;4977220;28;20121;-65
2023/01/10 09:56:59;;;;;;;15.35;3.85;;;;;;;0.31;58.91;95809.69;4966349;28;20137;-65
2023/01/10 09:59:38;;;;;;;8.48;2.38;;;;;;;-0.21;60.38;95804.56;4971964;28;20386;-65
2023/01/10 10:02:13;;;;;;;22.15;3.53;;;;;;;-0.08;60.72;95806.31;4968566;28;20102;-65
2023/01/10 10:04:38;;;;;;;15.55;4.15;;;;;;;-0.94;62.68;95809.44;4947583;28;20585;-65
2023/01/10 10:07:05;;;;;;;15.90;3.60;;;;;;;-0.41;60.27;95826.03;4967955;28;20107;-65
2023/01/10 10:09:31;;;;;;;13.02;2.78;;;;;;;-0.31;60.94;95816.59;4962292;28;20106;-65
2023/01/10 10:12:22;;;;;;;11.07;3.95;;;;;;;-0.12;60.67;95815.31;4981370;28;20074;-65
2023/01/10 10:15:28;;;;;;;13.40;2.95;;;;;;;0.49;58.15;95811.13;4978199;28;20485;-65
2023/01/10 10:18:10;;;;;;;10.10;3.42;;;;;;;0.67;58.49;95819.44;4896136;29;20556;-65
2023/01/10 10:21:02;;;;;;;15.65;3.30;;;;;;;0.15;59.69;95816.97;4952228;28;20089;-65
2023/01/10 10:23:50;;;;;;;11.23;3.03;;;;;;;-0.02;59.65;95807.69;4972071;28;20107;-65
2023/01/10 10:26:35;;;;;;;13.15;3.17;;;;;;;-0.40;60.26;95825.94;4969998;28;20459;-65
2023/01/10 10:29:00;;;;;;;12.05;2.38;;;;;;;0.23;59.67;95814.66;4968627;28;20493;-65
2023/01/10 10:31:49;;;;;;;9.83;2.77;;;;;;;0.57;58.03;95817.50;4976627;28;20369;-65
2023/01/10 10:34:22;;;;;;;17.75;3.65;;;;;;;0.29;58.24;95814.22;4968244;28;20352;-65
2023/01/10 10:36:59;;;;;;;19.55;3.50;;;;;;;0.37;58.75;95815.47;4977281;28;20076;-65
2023/01/10 10:39:37;;;;;;;18.92;6.55;;;;;;;1.37;56.22;95809.94;4952828;28;20151;-65
2023/01/10 10:42:02;;;;;;;62.00;36.75;;;;;;;1.51;55.83;95808.06;4967579;28;20109;-65
2023/01/10 10:44:49;;;;;;;29.55;15.68;;;;;;;1.70;56.25;95806.72;4967036;28;20095;-65
2023/01/10 10:47:19;;;;;;;13.38;3.90;;;;;;;-0.02;57.46;95810.28;4979056;28;20109;-65
2023/01/10 10:50:03;;;;;;;12.18;3.05;;;;;;;1.26;55.20;95799.41;4979077;28;20105;-65
2023/01/10 10:52:31;;;;;;;15.88;3.95;;;;;;;0.68;55.58;95802.78;4978582;28;20102;-65
2023/01/10 10:54:56;;;;;;;16.70;7.18;;;;;;;1.70;55.04;95797.03;4967499;28;20129;-65
2023/01/10 10:57:24;;;;;;;16.17;3.60;;;;;;;1.50;53.45;95788.03;4962458;28;20451;-65
2023/01/10 10:59:49;;;;;;;11.27;2.63;;;;;;;1.95;53.27;95796.94;4981840;28;20150;-65
2023/01/10 11:02:25;;;;;;;17.52;3.72;;;;;;;0.20;57.44;95801.75;4978055;28;20116;-65
2023/01/10 11:04:52;;;;;;;14.57;3.13;;;;;;;0.39;57.57;95801.31;4979982;28;20176;-65
2023/01/10 11:07:17;;;;;;;14.15;3.03;;;;;;;0.77;55.92;95798.63;4962786;28;20101;-65
2023/01/10 11:10:13;;;;;;;9.93;2.88;;;;;;;1.74;54.15;95789.75;4963474;28;20100;-65
2023/01/10 11:12:31;;;;;;;15.85;3.47;;;;;;;1.57;53.89;95799.75;4955265;28;20089;-65
2023/01/10 11:14:57;;;;;;;15.20;3.42;;;;;;;1.84;52.05;95806.47;4976162;28;20113;-65
2023/01/10 11:17:27;;;;;;;15.40;3.03;;;;;;;1.71;53.25;95817.06;4956605;28;20171;-65
2023/01/10 11:20:00;;;;;;;11.60;5.55;;;;;;;1.78;53.77;95803.47;4977976;28;20083;-65
2023/01/10 11:22:34;;;;;;;8.48;2.60;;;;;;;1.61;52.72;95801.19;4976917;28;20374;-65
2023/01/10 11:25:00;;;;;;;15.70;4.25;;;;;;;1.20;54.33;95800.69;4964352;28;20152;-65
2023/01/10 11:27:30;;;;;;;24.83;12.35;;;;;;;1.20;55.11;95792.84;4978266;28;20096;-64
2023/01/10 11:30:07;;;;;;;14.95;3.55;;;;;;;1.09;54.71;95790.19;4979231;28;20530;-65
2023/01/10 11:32:54;;;;;;;10.23;2.80;;;;;;;1.77;52.90;95789.50;4966803;28;20089;-65
2023/01/10 11:35:40;;;;;;;12.02;3.10;;;;;;;1.61;53.13;95780.19;4965787;28;20620;-65
2023/01/10 11:38:28;;;;;;;13.85;3.10;;;;;;;2.24;52.19;95778.03;4967358;28;20113;-65
2023/01/10 11:41:00;;;;;;;13.50;3.72;;;;;;;1.25;53.80;95784.63;4977672;28;20214;-65
2023/01/10 11:43:30;;;;;;;13.85;4.05;;;;;;;2.97;51.32;95772.22;4978648;28;20137;-65
2023/01/10 11:45:58;;;;;;;14.95;4.47;;;;;;;0.96;54.80;95791.09;4976049;28;20104;-65
2023/01/10 11:48:24;;;;;;;31.08;14.77;;;;;;;0.78;55.61;95782.78;4960734;28;20071;-65